Terminal Aerodrome Forecast
Issued by NWS Twin Cities, MN

Home | Current Version | Previous Version | Text Only | Print | Product List | Glossary Off
Versions: 1 2 3 4 5 6 7 8 9 10 11 12 13 14 15 16

000
FTUS43 KMPX 212324
TAFEAU
TAF
KEAU 212324Z 2200/2224 16009KT P6SM SKC
     FM220500 19007KT P6SM VCTS SCT025 BKN040CB
     FM221000 27004KT P6SM SCT020 BKN110
     FM221600 34006KT P6SM SCT050 BKN120 PROB30 2220/2224 5SM -TSRA
      BKN035CB OVC090=

USA.gov is the U.S. government's official web portal to all federal, state and local government web resources and services.